sensor_id;sensor_type;location;lat;lon;timestamp;P1;durP1;ratioP1;P2;durP2;ratioP2
43431;SDS011;40365;41.866;21.942;2022-07-04T00:03:14;12.05;;;8.30;;
43431;SDS011;40365;41.866;21.942;2022-07-04T00:05:41;10.63;;;7.75;;
43431;SDS011;40365;41.866;21.942;2022-07-04T00:08:07;10.48;;;7.40;;
43431;SDS011;40365;41.866;21.942;2022-07-04T00:10:33;9.88;;;7.20;;
43431;SDS011;40365;41.866;21.942;2022-07-04T00:12:59;13.30;;;8.13;;
43431;SDS011;40365;41.866;21.942;2022-07-04T00:17:03;10.52;;;7.55;;
43431;SDS011;40365;41.866;21.942;2022-07-04T00:19:29;12.57;;;8.70;;
43431;SDS011;40365;41.866;21.942;2022-07-04T00:21:55;11.25;;;8.45;;
43431;SDS011;40365;41.866;21.942;2022-07-04T00:24:22;10.43;;;7.55;;
43431;SDS011;40365;41.866;21.942;2022-07-04T00:31:13;8.32;;;6.32;;
43431;SDS011;40365;41.866;21.942;2022-07-04T00:33:39;10.50;;;6.43;;
43431;SDS011;40365;41.866;21.942;2022-07-04T00:36:05;11.10;;;6.32;;
43431;SDS011;40365;41.866;21.942;2022-07-04T00:38:32;9.02;;;6.32;;
43431;SDS011;40365;41.866;21.942;2022-07-04T00:43:31;9.48;;;5.93;;
43431;SDS011;40365;41.866;21.942;2022-07-04T00:50:19;9.32;;;5.95;;
43431;SDS011;40365;41.866;21.942;2022-07-04T00:52:45;8.25;;;5.75;;
43431;SDS011;40365;41.866;21.942;2022-07-04T00:56:43;8.77;;;5.93;;
43431;SDS011;40365;41.866;21.942;2022-07-04T01:00:17;10.77;;;6.82;;
43431;SDS011;40365;41.866;21.942;2022-07-04T01:03:00;9.55;;;6.43;;
43431;SDS011;40365;41.866;21.942;2022-07-04T01:05:26;9.18;;;5.68;;
43431;SDS011;40365;41.866;21.942;2022-07-04T01:07:52;10.80;;;7.00;;
43431;SDS011;40365;41.866;21.942;2022-07-04T01:10:18;9.38;;;6.45;;
43431;SDS011;40365;41.866;21.942;2022-07-04T01:12:45;9.52;;;6.60;;
43431;SDS011;40365;41.866;21.942;2022-07-04T01:15:11;8.68;;;6.35;;
43431;SDS011;40365;41.866;21.942;2022-07-04T01:17:37;8.65;;;6.75;;
43431;SDS011;40365;41.866;21.942;2022-07-04T01:20:03;8.70;;;6.03;;
43431;SDS011;40365;41.866;21.942;2022-07-04T01:27:09;9.52;;;6.22;;
43431;SDS011;40365;41.866;21.942;2022-07-04T01:31:02;10.45;;;6.70;;
43431;SDS011;40365;41.866;21.942;2022-07-04T01:33:28;10.50;;;6.38;;
43431;SDS011;40365;41.866;21.942;2022-07-04T01:35:54;10.95;;;6.03;;
43431;SDS011;40365;41.866;21.942;2022-07-04T01:38:21;8.15;;;5.65;;
43431;SDS011;40365;41.866;21.942;2022-07-04T01:40:47;10.25;;;5.95;;
43431;SDS011;40365;41.866;21.942;2022-07-04T01:43:13;9.23;;;6.40;;
43431;SDS011;40365;41.866;21.942;2022-07-04T01:45:39;8.75;;;6.13;;
43431;SDS011;40365;41.866;21.942;2022-07-04T01:50:15;7.63;;;5.07;;
43431;SDS011;40365;41.866;21.942;2022-07-04T01:52:41;8.40;;;6.00;;
43431;SDS011;40365;41.866;21.942;2022-07-04T01:55:08;9.30;;;6.10;;
43431;SDS011;40365;41.866;21.942;2022-07-04T01:58:37;9.60;;;5.55;;
43431;SDS011;40365;41.866;21.942;2022-07-04T02:03:44;9.57;;;6.63;;
43431;SDS011;40365;41.866;21.942;2022-07-04T02:06:22;10.70;;;6.70;;
43431;SDS011;40365;41.866;21.942;2022-07-04T02:11:27;8.00;;;5.28;;
43431;SDS011;40365;41.866;21.942;2022-07-04T02:15:36;8.43;;;5.53;;
43431;SDS011;40365;41.866;21.942;2022-07-04T02:18:03;10.98;;;5.63;;
43431;SDS011;40365;41.866;21.942;2022-07-04T02:20:51;7.88;;;5.68;;
43431;SDS011;40365;41.866;21.942;2022-07-04T02:23:17;10.25;;;5.72;;
43431;SDS011;40365;41.866;21.942;2022-07-04T02:25:44;8.70;;;5.93;;
43431;SDS011;40365;41.866;21.942;2022-07-04T02:28:10;10.10;;;6.60;;
43431;SDS011;40365;41.866;21.942;2022-07-04T02:30:36;7.72;;;5.28;;
43431;SDS011;40365;41.866;21.942;2022-07-04T02:33:56;9.95;;;6.60;;
43431;SDS011;40365;41.866;21.942;2022-07-04T02:36:22;13.18;;;6.72;;
43431;SDS011;40365;41.866;21.942;2022-07-04T02:38:49;10.70;;;7.05;;
43431;SDS011;40365;41.866;21.942;2022-07-04T02:42:36;10.45;;;7.20;;
43431;SDS011;40365;41.866;21.942;2022-07-04T02:45:03;12.07;;;8.07;;
43431;SDS011;40365;41.866;21.942;2022-07-04T02:47:29;12.25;;;7.13;;
43431;SDS011;40365;41.866;21.942;2022-07-04T02:49:55;9.55;;;7.80;;
43431;SDS011;40365;41.866;21.942;2022-07-04T02:53:14;10.07;;;7.32;;
43431;SDS011;40365;41.866;21.942;2022-07-04T02:55:40;9.68;;;7.15;;
43431;SDS011;40365;41.866;21.942;2022-07-04T02:58:37;11.70;;;7.30;;
43431;SDS011;40365;41.866;21.942;2022-07-04T03:01:03;11.95;;;7.13;;
43431;SDS011;40365;41.866;21.942;2022-07-04T03:03:29;7.82;;;5.70;;
43431;SDS011;40365;41.866;21.942;2022-07-04T03:08:58;12.13;;;6.90;;
43431;SDS011;40365;41.866;21.942;2022-07-04T03:11:24;9.95;;;6.72;;
43431;SDS011;40365;41.866;21.942;2022-07-04T03:15:53;9.55;;;6.68;;
43431;SDS011;40365;41.866;21.942;2022-07-04T03:18:20;10.40;;;7.00;;
43431;SDS011;40365;41.866;21.942;2022-07-04T03:21:12;10.95;;;7.28;;
43431;SDS011;40365;41.866;21.942;2022-07-04T03:25:01;12.90;;;7.38;;
43431;SDS011;40365;41.866;21.942;2022-07-04T03:29:41;10.43;;;7.30;;
43431;SDS011;40365;41.866;21.942;2022-07-04T03:32:55;9.57;;;6.90;;
43431;SDS011;40365;41.866;21.942;2022-07-04T03:35:52;9.50;;;6.78;;
43431;SDS011;40365;41.866;21.942;2022-07-04T03:38:18;9.68;;;6.55;;
43431;SDS011;40365;41.866;21.942;2022-07-04T03:41:34;8.82;;;6.47;;
43431;SDS011;40365;41.866;21.942;2022-07-04T03:44:01;11.07;;;6.72;;
43431;SDS011;40365;41.866;21.942;2022-07-04T03:46:27;9.43;;;6.30;;
43431;SDS011;40365;41.866;21.942;2022-07-04T03:48:53;8.50;;;5.72;;
43431;SDS011;40365;41.866;21.942;2022-07-04T03:51:20;9.95;;;6.50;;
43431;SDS011;40365;41.866;21.942;2022-07-04T03:53:48;8.40;;;6.15;;
43431;SDS011;40365;41.866;21.942;2022-07-04T03:56:14;10.15;;;7.03;;
43431;SDS011;40365;41.866;21.942;2022-07-04T04:00:17;9.80;;;6.43;;
43431;SDS011;40365;41.866;21.942;2022-07-04T04:02:43;10.77;;;7.60;;
43431;SDS011;40365;41.866;21.942;2022-07-04T04:05:35;9.68;;;6.65;;
43431;SDS011;40365;41.866;21.942;2022-07-04T04:08:02;14.43;;;6.97;;
43431;SDS011;40365;41.866;21.942;2022-07-04T04:12:01;12.95;;;7.90;;
43431;SDS011;40365;41.866;21.942;2022-07-04T04:14:27;13.35;;;9.15;;
43431;SDS011;40365;41.866;21.942;2022-07-04T04:16:53;13.93;;;9.20;;
43431;SDS011;40365;41.866;21.942;2022-07-04T04:20:39;16.40;;;9.68;;
43431;SDS011;40365;41.866;21.942;2022-07-04T04:24:21;12.00;;;8.15;;
43431;SDS011;40365;41.866;21.942;2022-07-04T04:26:47;11.40;;;8.02;;
43431;SDS011;40365;41.866;21.942;2022-07-04T04:29:13;12.98;;;8.82;;
43431;SDS011;40365;41.866;21.942;2022-07-04T04:31:39;14.65;;;8.85;;
43431;SDS011;40365;41.866;21.942;2022-07-04T04:34:06;11.15;;;7.95;;
43431;SDS011;40365;41.866;21.942;2022-07-04T04:36:32;12.18;;;8.23;;
43431;SDS011;40365;41.866;21.942;2022-07-04T04:38:58;12.57;;;7.70;;
43431;SDS011;40365;41.866;21.942;2022-07-04T04:41:24;10.90;;;7.57;;
43431;SDS011;40365;41.866;21.942;2022-07-04T04:43:51;11.05;;;8.00;;
43431;SDS011;40365;41.866;21.942;2022-07-04T04:50:21;9.65;;;6.90;;
43431;SDS011;40365;41.866;21.942;2022-07-04T04:56:01;14.07;;;8.13;;
43431;SDS011;40365;41.866;21.942;2022-07-04T04:58:27;14.10;;;9.40;;
43431;SDS011;40365;41.866;21.942;2022-07-04T05:10:43;12.45;;;7.30;;
43431;SDS011;40365;41.866;21.942;2022-07-04T05:13:09;10.35;;;6.53;;
43431;SDS011;40365;41.866;21.942;2022-07-04T05:15:35;9.48;;;6.53;;
43431;SDS011;40365;41.866;21.942;2022-07-04T05:18:01;10.60;;;7.05;;
43431;SDS011;40365;41.866;21.942;2022-07-04T05:20:27;8.68;;;6.00;;
43431;SDS011;40365;41.866;21.942;2022-07-04T05:22:54;9.07;;;6.57;;
43431;SDS011;40365;41.866;21.942;2022-07-04T05:25:20;14.32;;;6.97;;
43431;SDS011;40365;41.866;21.942;2022-07-04T05:27:46;9.05;;;6.43;;
43431;SDS011;40365;41.866;21.942;2022-07-04T05:30:12;8.55;;;6.32;;
43431;SDS011;40365;41.866;21.942;2022-07-04T05:32:38;10.05;;;6.95;;
43431;SDS011;40365;41.866;21.942;2022-07-04T05:37:41;9.27;;;6.22;;
43431;SDS011;40365;41.866;21.942;2022-07-04T05:40:09;8.07;;;5.93;;
43431;SDS011;40365;41.866;21.942;2022-07-04T05:42:35;11.82;;;7.70;;
43431;SDS011;40365;41.866;21.942;2022-07-04T05:45:01;9.95;;;7.00;;
43431;SDS011;40365;41.866;21.942;2022-07-04T05:47:28;9.05;;;7.13;;
43431;SDS011;40365;41.866;21.942;2022-07-04T05:49:54;11.68;;;7.72;;
43431;SDS011;40365;41.866;21.942;2022-07-04T05:52:21;9.38;;;6.22;;
43431;SDS011;40365;41.866;21.942;2022-07-04T05:54:48;8.32;;;5.43;;
43431;SDS011;40365;41.866;21.942;2022-07-04T05:57:32;10.63;;;6.45;;
43431;SDS011;40365;41.866;21.942;2022-07-04T06:02:52;11.32;;;8.10;;
43431;SDS011;40365;41.866;21.942;2022-07-04T06:05:18;10.18;;;7.13;;
43431;SDS011;40365;41.866;21.942;2022-07-04T06:07:44;10.75;;;6.47;;
43431;SDS011;40365;41.866;21.942;2022-07-04T06:10:13;9.35;;;6.78;;
43431;SDS011;40365;41.866;21.942;2022-07-04T06:12:39;11.82;;;6.80;;
43431;SDS011;40365;41.866;21.942;2022-07-04T06:15:06;10.93;;;6.90;;
43431;SDS011;40365;41.866;21.942;2022-07-04T06:18:40;7.88;;;5.68;;
43431;SDS011;40365;41.866;21.942;2022-07-04T06:21:06;11.10;;;6.82;;
43431;SDS011;40365;41.866;21.942;2022-07-04T06:23:32;9.75;;;6.63;;
43431;SDS011;40365;41.866;21.942;2022-07-04T06:25:58;10.32;;;6.70;;
43431;SDS011;40365;41.866;21.942;2022-07-04T06:28:24;8.65;;;5.97;;
43431;SDS011;40365;41.866;21.942;2022-07-04T06:30:51;12.02;;;7.03;;
43431;SDS011;40365;41.866;21.942;2022-07-04T06:33:17;9.52;;;7.03;;
43431;SDS011;40365;41.866;21.942;2022-07-04T06:35:44;8.15;;;6.22;;
43431;SDS011;40365;41.866;21.942;2022-07-04T06:38:10;9.60;;;6.65;;
43431;SDS011;40365;41.866;21.942;2022-07-04T06:40:37;8.48;;;6.43;;
43431;SDS011;40365;41.866;21.942;2022-07-04T06:43:03;10.05;;;7.30;;
43431;SDS011;40365;41.866;21.942;2022-07-04T06:45:30;11.65;;;6.40;;
43431;SDS011;40365;41.866;21.942;2022-07-04T06:47:56;9.25;;;6.72;;
43431;SDS011;40365;41.866;21.942;2022-07-04T06:51:54;11.20;;;7.45;;
43431;SDS011;40365;41.866;21.942;2022-07-04T06:56:52;11.43;;;7.47;;
43431;SDS011;40365;41.866;21.942;2022-07-04T06:59:18;10.80;;;7.03;;
43431;SDS011;40365;41.866;21.942;2022-07-04T07:01:44;9.60;;;6.80;;
43431;SDS011;40365;41.866;21.942;2022-07-04T07:04:10;8.80;;;6.70;;
43431;SDS011;40365;41.866;21.942;2022-07-04T07:06:37;8.77;;;6.28;;
43431;SDS011;40365;41.866;21.942;2022-07-04T07:09:03;9.07;;;6.15;;
43431;SDS011;40365;41.866;21.942;2022-07-04T07:12:53;9.13;;;6.53;;
43431;SDS011;40365;41.866;21.942;2022-07-04T07:15:19;9.52;;;6.88;;
43431;SDS011;40365;41.866;21.942;2022-07-04T07:17:46;7.25;;;5.50;;
43431;SDS011;40365;41.866;21.942;2022-07-04T07:20:12;8.77;;;6.30;;
43431;SDS011;40365;41.866;21.942;2022-07-04T07:22:39;7.80;;;5.57;;
43431;SDS011;40365;41.866;21.942;2022-07-04T07:27:05;7.70;;;5.28;;
43431;SDS011;40365;41.866;21.942;2022-07-04T07:29:31;8.70;;;5.82;;
43431;SDS011;40365;41.866;21.942;2022-07-04T07:31:58;9.60;;;6.53;;
43431;SDS011;40365;41.866;21.942;2022-07-04T07:34:24;10.35;;;6.85;;
43431;SDS011;40365;41.866;21.942;2022-07-04T07:36:50;10.32;;;6.82;;
43431;SDS011;40365;41.866;21.942;2022-07-04T07:39:16;8.93;;;6.57;;
43431;SDS011;40365;41.866;21.942;2022-07-04T07:43:48;8.48;;;5.97;;
43431;SDS011;40365;41.866;21.942;2022-07-04T07:46:14;8.60;;;6.25;;
43431;SDS011;40365;41.866;21.942;2022-07-04T07:48:40;9.20;;;6.97;;
43431;SDS011;40365;41.866;21.942;2022-07-04T07:51:09;8.68;;;6.55;;
43431;SDS011;40365;41.866;21.942;2022-07-04T07:53:35;8.15;;;5.93;;
43431;SDS011;40365;41.866;21.942;2022-07-04T07:56:01;9.52;;;6.22;;
43431;SDS011;40365;41.866;21.942;2022-07-04T07:58:27;11.35;;;6.10;;
43431;SDS011;40365;41.866;21.942;2022-07-04T08:00:54;8.90;;;6.05;;
43431;SDS011;40365;41.866;21.942;2022-07-04T08:03:20;7.43;;;5.18;;
43431;SDS011;40365;41.866;21.942;2022-07-04T08:06:04;9.23;;;5.97;;
43431;SDS011;40365;41.866;21.942;2022-07-04T08:08:31;9.25;;;5.55;;
43431;SDS011;40365;41.866;21.942;2022-07-04T08:10:57;8.88;;;6.25;;
43431;SDS011;40365;41.866;21.942;2022-07-04T08:13:23;8.30;;;5.80;;
43431;SDS011;40365;41.866;21.942;2022-07-04T08:15:49;8.60;;;6.25;;
43431;SDS011;40365;41.866;21.942;2022-07-04T08:18:15;8.00;;;5.30;;
43431;SDS011;40365;41.866;21.942;2022-07-04T08:20:43;7.38;;;5.70;;
43431;SDS011;40365;41.866;21.942;2022-07-04T08:23:09;9.05;;;5.75;;
43431;SDS011;40365;41.866;21.942;2022-07-04T08:25:35;8.75;;;5.68;;
43431;SDS011;40365;41.866;21.942;2022-07-04T08:28:01;9.20;;;5.20;;
43431;SDS011;40365;41.866;21.942;2022-07-04T08:30:27;10.13;;;6.80;;
43431;SDS011;40365;41.866;21.942;2022-07-04T08:32:53;8.23;;;5.53;;
43431;SDS011;40365;41.866;21.942;2022-07-04T08:35:20;9.63;;;5.72;;
43431;SDS011;40365;41.866;21.942;2022-07-04T08:37:46;10.02;;;5.60;;
43431;SDS011;40365;41.866;21.942;2022-07-04T08:40:14;8.40;;;5.15;;
43431;SDS011;40365;41.866;21.942;2022-07-04T08:42:40;9.52;;;5.60;;
43431;SDS011;40365;41.866;21.942;2022-07-04T08:45:06;7.57;;;5.43;;
43431;SDS011;40365;41.866;21.942;2022-07-04T08:47:34;6.60;;;5.30;;
43431;SDS011;40365;41.866;21.942;2022-07-04T08:52:39;10.13;;;6.00;;
43431;SDS011;40365;41.866;21.942;2022-07-04T08:55:06;7.07;;;4.95;;
43431;SDS011;40365;41.866;21.942;2022-07-04T08:57:51;7.90;;;5.20;;
43431;SDS011;40365;41.866;21.942;2022-07-04T09:00:37;8.55;;;5.90;;
43431;SDS011;40365;41.866;21.942;2022-07-04T09:03:04;7.20;;;5.25;;
43431;SDS011;40365;41.866;21.942;2022-07-04T09:05:30;8.10;;;5.18;;
43431;SDS011;40365;41.866;21.942;2022-07-04T09:07:57;10.15;;;5.45;;
43431;SDS011;40365;41.866;21.942;2022-07-04T09:10:23;9.13;;;5.13;;
43431;SDS011;40365;41.866;21.942;2022-07-04T09:12:50;7.90;;;5.40;;
43431;SDS011;40365;41.866;21.942;2022-07-04T09:15:16;7.63;;;5.15;;
43431;SDS011;40365;41.866;21.942;2022-07-04T09:17:42;7.55;;;5.35;;
43431;SDS011;40365;41.866;21.942;2022-07-04T09:20:15;8.77;;;5.78;;
43431;SDS011;40365;41.866;21.942;2022-07-04T09:22:42;7.68;;;5.07;;
43431;SDS011;40365;41.866;21.942;2022-07-04T09:25:08;7.60;;;5.18;;
43431;SDS011;40365;41.866;21.942;2022-07-04T09:27:38;8.07;;;5.47;;
43431;SDS011;40365;41.866;21.942;2022-07-04T09:30:05;8.93;;;5.32;;
43431;SDS011;40365;41.866;21.942;2022-07-04T09:32:51;8.63;;;5.00;;
43431;SDS011;40365;41.866;21.942;2022-07-04T09:35:22;7.25;;;4.95;;
43431;SDS011;40365;41.866;21.942;2022-07-04T09:37:50;6.72;;;4.50;;
43431;SDS011;40365;41.866;21.942;2022-07-04T09:40:23;9.60;;;5.20;;
43431;SDS011;40365;41.866;21.942;2022-07-04T09:42:50;8.40;;;5.32;;
43431;SDS011;40365;41.866;21.942;2022-07-04T09:45:17;7.50;;;5.28;;
43431;SDS011;40365;41.866;21.942;2022-07-04T09:47:45;6.57;;;4.72;;
43431;SDS011;40365;41.866;21.942;2022-07-04T09:55:19;8.60;;;5.20;;
43431;SDS011;40365;41.866;21.942;2022-07-04T10:00:18;9.25;;;4.97;;
43431;SDS011;40365;41.866;21.942;2022-07-04T10:02:45;7.88;;;4.43;;
43431;SDS011;40365;41.866;21.942;2022-07-04T10:05:11;7.50;;;5.00;;
43431;SDS011;40365;41.866;21.942;2022-07-04T10:07:38;6.55;;;4.70;;
43431;SDS011;40365;41.866;21.942;2022-07-04T10:10:34;8.13;;;4.78;;
43431;SDS011;40365;41.866;21.942;2022-07-04T10:13:06;6.97;;;4.80;;
43431;SDS011;40365;41.866;21.942;2022-07-04T10:15:33;6.57;;;4.50;;
43431;SDS011;40365;41.866;21.942;2022-07-04T10:18:02;6.93;;;4.93;;
43431;SDS011;40365;41.866;21.942;2022-07-04T10:20:28;6.00;;;4.38;;
43431;SDS011;40365;41.866;21.942;2022-07-04T10:22:55;6.88;;;4.78;;
43431;SDS011;40365;41.866;21.942;2022-07-04T10:25:21;6.40;;;4.60;;
43431;SDS011;40365;41.866;21.942;2022-07-04T10:27:48;7.75;;;4.15;;
43431;SDS011;40365;41.866;21.942;2022-07-04T10:30:17;10.05;;;4.45;;
43431;SDS011;40365;41.866;21.942;2022-07-04T10:32:45;6.45;;;4.50;;
43431;SDS011;40365;41.866;21.942;2022-07-04T10:35:13;6.32;;;4.30;;
43431;SDS011;40365;41.866;21.942;2022-07-04T10:37:58;8.43;;;4.35;;
43431;SDS011;40365;41.866;21.942;2022-07-04T10:40:38;5.93;;;4.50;;
43431;SDS011;40365;41.866;21.942;2022-07-04T10:46:42;7.43;;;4.07;;
43431;SDS011;40365;41.866;21.942;2022-07-04T10:54:04;8.27;;;4.78;;
43431;SDS011;40365;41.866;21.942;2022-07-04T10:56:34;6.13;;;3.88;;
43431;SDS011;40365;41.866;21.942;2022-07-04T10:59:00;6.18;;;4.05;;
43431;SDS011;40365;41.866;21.942;2022-07-04T11:01:33;6.40;;;4.40;;
43431;SDS011;40365;41.866;21.942;2022-07-04T11:03:59;6.85;;;4.50;;
43431;SDS011;40365;41.866;21.942;2022-07-04T11:14:31;6.55;;;4.38;;
43431;SDS011;40365;41.866;21.942;2022-07-04T11:16:57;5.32;;;3.90;;
43431;SDS011;40365;41.866;21.942;2022-07-04T11:19:23;6.15;;;3.70;;
43431;SDS011;40365;41.866;21.942;2022-07-04T11:21:50;7.25;;;4.30;;
43431;SDS011;40365;41.866;21.942;2022-07-04T11:24:16;6.05;;;3.92;;
43431;SDS011;40365;41.866;21.942;2022-07-04T11:26:42;6.65;;;4.35;;
43431;SDS011;40365;41.866;21.942;2022-07-04T11:29:11;6.90;;;4.13;;
43431;SDS011;40365;41.866;21.942;2022-07-04T11:31:41;6.05;;;4.20;;
43431;SDS011;40365;41.866;21.942;2022-07-04T11:34:08;5.65;;;3.55;;
43431;SDS011;40365;41.866;21.942;2022-07-04T11:36:34;5.30;;;3.50;;
43431;SDS011;40365;41.866;21.942;2022-07-04T11:39:04;6.97;;;4.13;;
43431;SDS011;40365;41.866;21.942;2022-07-04T11:41:32;7.15;;;4.32;;
43431;SDS011;40365;41.866;21.942;2022-07-04T11:44:17;10.63;;;4.35;;
43431;SDS011;40365;41.866;21.942;2022-07-04T11:47:09;5.63;;;3.90;;
43431;SDS011;40365;41.866;21.942;2022-07-04T11:49:37;5.10;;;3.50;;
43431;SDS011;40365;41.866;21.942;2022-07-04T11:52:06;4.50;;;3.40;;
43431;SDS011;40365;41.866;21.942;2022-07-04T11:54:33;6.70;;;3.90;;
43431;SDS011;40365;41.866;21.942;2022-07-04T11:59:41;6.33;;;3.53;;
43431;SDS011;40365;41.866;21.942;2022-07-04T12:02:14;5.22;;;3.53;;
43431;SDS011;40365;41.866;21.942;2022-07-04T12:04:40;5.60;;;3.72;;
43431;SDS011;40365;41.866;21.942;2022-07-04T12:07:11;8.43;;;3.58;;
43431;SDS011;40365;41.866;21.942;2022-07-04T12:09:37;7.32;;;3.42;;
43431;SDS011;40365;41.866;21.942;2022-07-04T12:12:03;4.22;;;3.13;;
43431;SDS011;40365;41.866;21.942;2022-07-04T12:14:29;4.97;;;3.20;;
43431;SDS011;40365;41.866;21.942;2022-07-04T12:17:12;6.32;;;3.20;;
43431;SDS011;40365;41.866;21.942;2022-07-04T12:19:56;5.28;;;3.08;;
43431;SDS011;40365;41.866;21.942;2022-07-04T12:22:49;5.20;;;3.45;;
43431;SDS011;40365;41.866;21.942;2022-07-04T12:25:29;4.88;;;3.08;;
43431;SDS011;40365;41.866;21.942;2022-07-04T12:30:27;8.50;;;3.72;;
43431;SDS011;40365;41.866;21.942;2022-07-04T12:32:57;4.75;;;3.10;;
43431;SDS011;40365;41.866;21.942;2022-07-04T12:35:34;4.68;;;2.70;;
43431;SDS011;40365;41.866;21.942;2022-07-04T12:38:01;6.35;;;2.97;;
43431;SDS011;40365;41.866;21.942;2022-07-04T12:40:28;7.03;;;3.50;;
43431;SDS011;40365;41.866;21.942;2022-07-04T12:42:55;8.32;;;3.10;;
43431;SDS011;40365;41.866;21.942;2022-07-04T12:45:22;5.95;;;3.40;;
43431;SDS011;40365;41.866;21.942;2022-07-04T12:47:48;4.38;;;2.85;;
43431;SDS011;40365;41.866;21.942;2022-07-04T12:50:14;6.22;;;3.55;;
43431;SDS011;40365;41.866;21.942;2022-07-04T12:52:41;7.47;;;4.03;;
43431;SDS011;40365;41.866;21.942;2022-07-04T12:55:08;7.50;;;3.90;;
43431;SDS011;40365;41.866;21.942;2022-07-04T12:57:35;6.25;;;3.45;;
43431;SDS011;40365;41.866;21.942;2022-07-04T13:00:02;6.00;;;3.60;;
43431;SDS011;40365;41.866;21.942;2022-07-04T13:02:29;5.38;;;3.70;;
43431;SDS011;40365;41.866;21.942;2022-07-04T13:04:55;6.57;;;4.10;;
43431;SDS011;40365;41.866;21.942;2022-07-04T13:07:22;5.43;;;3.90;;
43431;SDS011;40365;41.866;21.942;2022-07-04T13:09:48;6.88;;;3.75;;
43431;SDS011;40365;41.866;21.942;2022-07-04T13:12:14;8.13;;;4.00;;
43431;SDS011;40365;41.866;21.942;2022-07-04T13:14:49;5.15;;;3.88;;
43431;SDS011;40365;41.866;21.942;2022-07-04T13:17:16;5.57;;;3.75;;
43431;SDS011;40365;41.866;21.942;2022-07-04T13:19:42;7.38;;;3.92;;
43431;SDS011;40365;41.866;21.942;2022-07-04T13:22:08;5.35;;;3.40;;
43431;SDS011;40365;41.866;21.942;2022-07-04T13:24:35;6.57;;;3.75;;
43431;SDS011;40365;41.866;21.942;2022-07-04T13:27:01;9.52;;;4.03;;
43431;SDS011;40365;41.866;21.942;2022-07-04T13:29:27;13.93;;;4.80;;
43431;SDS011;40365;41.866;21.942;2022-07-04T13:31:53;7.38;;;4.13;;
43431;SDS011;40365;41.866;21.942;2022-07-04T13:34:19;9.90;;;4.10;;
43431;SDS011;40365;41.866;21.942;2022-07-04T13:36:45;8.23;;;4.70;;
43431;SDS011;40365;41.866;21.942;2022-07-04T13:39:12;8.20;;;4.05;;
43431;SDS011;40365;41.866;21.942;2022-07-04T13:41:38;8.50;;;4.93;;
43431;SDS011;40365;41.866;21.942;2022-07-04T13:44:05;6.40;;;4.20;;
43431;SDS011;40365;41.866;21.942;2022-07-04T13:46:31;10.20;;;4.13;;
43431;SDS011;40365;41.866;21.942;2022-07-04T13:49:03;8.02;;;4.93;;
43431;SDS011;40365;41.866;21.942;2022-07-04T13:51:30;9.48;;;4.72;;
43431;SDS011;40365;41.866;21.942;2022-07-04T13:53:56;7.03;;;4.30;;
43431;SDS011;40365;41.866;21.942;2022-07-04T13:56:22;6.45;;;3.80;;
43431;SDS011;40365;41.866;21.942;2022-07-04T13:58:48;5.75;;;3.63;;
43431;SDS011;40365;41.866;21.942;2022-07-04T14:01:14;5.72;;;3.70;;
43431;SDS011;40365;41.866;21.942;2022-07-04T14:03:43;5.00;;;3.65;;
43431;SDS011;40365;41.866;21.942;2022-07-04T14:06:09;8.23;;;3.58;;
43431;SDS011;40365;41.866;21.942;2022-07-04T14:08:35;7.05;;;3.83;;
43431;SDS011;40365;41.866;21.942;2022-07-04T14:11:02;5.85;;;3.47;;
43431;SDS011;40365;41.866;21.942;2022-07-04T14:13:28;4.93;;;3.47;;
43431;SDS011;40365;41.866;21.942;2022-07-04T14:15:54;5.38;;;3.90;;
43431;SDS011;40365;41.866;21.942;2022-07-04T14:18:20;7.88;;;3.83;;
43431;SDS011;40365;41.866;21.942;2022-07-04T14:20:46;6.82;;;3.65;;
43431;SDS011;40365;41.866;21.942;2022-07-04T14:23:14;5.72;;;3.45;;
43431;SDS011;40365;41.866;21.942;2022-07-04T14:26:00;5.50;;;3.33;;
43431;SDS011;40365;41.866;21.942;2022-07-04T14:28:26;5.75;;;3.65;;
43431;SDS011;40365;41.866;21.942;2022-07-04T14:30:52;5.70;;;3.63;;
43431;SDS011;40365;41.866;21.942;2022-07-04T14:33:18;6.18;;;3.67;;
43431;SDS011;40365;41.866;21.942;2022-07-04T14:35:44;7.25;;;3.25;;
43431;SDS011;40365;41.866;21.942;2022-07-04T14:38:11;5.22;;;3.15;;
43431;SDS011;40365;41.866;21.942;2022-07-04T14:40:37;5.57;;;3.92;;
43431;SDS011;40365;41.866;21.942;2022-07-04T14:43:04;5.10;;;3.40;;
43431;SDS011;40365;41.866;21.942;2022-07-04T14:45:30;5.90;;;3.00;;
43431;SDS011;40365;41.866;21.942;2022-07-04T14:47:56;5.47;;;3.25;;
43431;SDS011;40365;41.866;21.942;2022-07-04T14:50:23;4.60;;;2.80;;
43431;SDS011;40365;41.866;21.942;2022-07-04T14:52:49;5.10;;;3.55;;
43431;SDS011;40365;41.866;21.942;2022-07-04T14:55:15;6.65;;;3.05;;
43431;SDS011;40365;41.866;21.942;2022-07-04T14:57:42;4.50;;;2.72;;
43431;SDS011;40365;41.866;21.942;2022-07-04T15:00:08;4.30;;;2.85;;
43431;SDS011;40365;41.866;21.942;2022-07-04T15:02:34;6.68;;;3.58;;
43431;SDS011;40365;41.866;21.942;2022-07-04T15:05:00;4.93;;;2.92;;
43431;SDS011;40365;41.866;21.942;2022-07-04T15:07:27;10.07;;;3.05;;
43431;SDS011;40365;41.866;21.942;2022-07-04T15:09:53;4.55;;;3.13;;
43431;SDS011;40365;41.866;21.942;2022-07-04T15:12:20;3.95;;;2.65;;
43431;SDS011;40365;41.866;21.942;2022-07-04T15:14:46;4.38;;;3.03;;
43431;SDS011;40365;41.866;21.942;2022-07-04T15:17:12;4.72;;;2.97;;
43431;SDS011;40365;41.866;21.942;2022-07-04T15:19:40;5.40;;;2.70;;
43431;SDS011;40365;41.866;21.942;2022-07-04T15:22:25;5.00;;;2.85;;
43431;SDS011;40365;41.866;21.942;2022-07-04T15:25:10;5.05;;;3.33;;
43431;SDS011;40365;41.866;21.942;2022-07-04T15:27:36;4.95;;;3.28;;
43431;SDS011;40365;41.866;21.942;2022-07-04T15:30:02;8.23;;;4.07;;
43431;SDS011;40365;41.866;21.942;2022-07-04T15:32:28;5.40;;;3.60;;
43431;SDS011;40365;41.866;21.942;2022-07-04T15:34:54;5.47;;;3.33;;
43431;SDS011;40365;41.866;21.942;2022-07-04T15:37:20;5.78;;;3.28;;
43431;SDS011;40365;41.866;21.942;2022-07-04T15:39:47;4.95;;;3.58;;
43431;SDS011;40365;41.866;21.942;2022-07-04T15:42:13;5.97;;;3.60;;
43431;SDS011;40365;41.866;21.942;2022-07-04T15:44:39;4.82;;;2.88;;
43431;SDS011;40365;41.866;21.942;2022-07-04T15:47:05;6.70;;;3.60;;
43431;SDS011;40365;41.866;21.942;2022-07-04T15:49:34;7.30;;;3.05;;
43431;SDS011;40365;41.866;21.942;2022-07-04T15:52:00;4.32;;;3.20;;
43431;SDS011;40365;41.866;21.942;2022-07-04T15:54:27;5.47;;;3.55;;
43431;SDS011;40365;41.866;21.942;2022-07-04T15:56:53;5.35;;;3.47;;
43431;SDS011;40365;41.866;21.942;2022-07-04T15:59:19;6.65;;;3.35;;
43431;SDS011;40365;41.866;21.942;2022-07-04T16:01:45;5.00;;;3.40;;
43431;SDS011;40365;41.866;21.942;2022-07-04T16:04:12;4.60;;;3.28;;
43431;SDS011;40365;41.866;21.942;2022-07-04T16:06:38;5.20;;;3.38;;
43431;SDS011;40365;41.866;21.942;2022-07-04T16:09:05;7.05;;;3.35;;
43431;SDS011;40365;41.866;21.942;2022-07-04T16:11:31;4.53;;;3.22;;
43431;SDS011;40365;41.866;21.942;2022-07-04T16:13:57;4.65;;;3.25;;
43431;SDS011;40365;41.866;21.942;2022-07-04T16:16:23;5.15;;;3.50;;
43431;SDS011;40365;41.866;21.942;2022-07-04T16:18:50;6.85;;;4.32;;
43431;SDS011;40365;41.866;21.942;2022-07-04T16:21:16;6.07;;;4.20;;
43431;SDS011;40365;41.866;21.942;2022-07-04T16:23:43;6.93;;;4.78;;
43431;SDS011;40365;41.866;21.942;2022-07-04T16:26:09;7.97;;;5.05;;
43431;SDS011;40365;41.866;21.942;2022-07-04T16:28:35;7.75;;;5.13;;
43431;SDS011;40365;41.866;21.942;2022-07-04T16:31:01;10.40;;;5.28;;
43431;SDS011;40365;41.866;21.942;2022-07-04T16:33:27;8.32;;;4.75;;